createdAt,value
2022-11-03T00:00:12.325Z,8.12
2022-11-03T00:02:44.460Z,8.07
2022-11-03T00:05:35.120Z,8.00
2022-11-03T00:08:06.939Z,7.98
2022-11-03T00:10:38.615Z,7.95
2022-11-03T00:13:10.192Z,7.97
2022-11-03T00:15:49.019Z,7.95
2022-11-03T00:18:20.574Z,7.94
2022-11-03T00:20:58.776Z,7.92
2022-11-03T00:23:32.863Z,7.92
2022-11-03T00:26:17.151Z,7.88
2022-11-03T00:29:03.187Z,7.83
2022-11-03T00:31:36.898Z,7.81
2022-11-03T00:34:09.194Z,7.80
2022-11-03T00:36:43.524Z,7.76
2022-11-03T00:39:15.091Z,7.74
2022-11-03T00:41:46.667Z,7.71
2022-11-03T00:44:18.256Z,7.69
2022-11-03T00:46:52.731Z,7.65
2022-11-03T00:49:24.298Z,7.63
2022-11-03T00:51:56.187Z,7.59
2022-11-03T00:54:27.699Z,7.57
2022-11-03T00:56:59.334Z,7.54
2022-11-03T00:59:30.926Z,7.54
2022-11-03T01:02:02.737Z,7.52
2022-11-03T01:04:53.043Z,7.50
2022-11-03T01:07:24.622Z,7.47
2022-11-03T01:09:56.238Z,7.42
2022-11-03T01:12:27.880Z,7.36
2022-11-03T01:14:59.443Z,7.35
2022-11-03T01:17:31.038Z,7.35
2022-11-03T01:20:02.615Z,7.32
2022-11-03T01:22:34.240Z,7.32
2022-11-03T01:25:06.180Z,7.26
2022-11-03T01:27:37.782Z,7.25
2022-11-03T01:30:09.829Z,7.20
2022-11-03T01:32:41.375Z,7.17
2022-11-03T01:35:13.342Z,7.12
2022-11-03T01:37:47.777Z,7.10
2022-11-03T01:40:19.875Z,7.03
2022-11-03T01:42:51.411Z,6.98
2022-11-03T01:45:22.923Z,6.95
2022-11-03T01:47:54.535Z,6.89
2022-11-03T01:50:26.119Z,6.88
2022-11-03T01:52:58.715Z,6.87
2022-11-03T01:55:36.261Z,6.87
2022-11-03T01:58:19.614Z,6.88
2022-11-03T02:00:53.922Z,6.85
2022-11-03T02:03:27.004Z,6.80
2022-11-03T02:05:58.811Z,6.80
2022-11-03T02:08:39.767Z,6.81
2022-11-03T02:11:31.809Z,6.79
2022-11-03T02:14:04.815Z,6.74
2022-11-03T02:16:36.404Z,6.70
2022-11-03T02:19:24.281Z,6.67
2022-11-03T02:22:03.056Z,6.63
2022-11-03T02:24:54.288Z,6.60
2022-11-03T02:27:26.222Z,6.58
2022-11-03T02:29:58.961Z,6.56
2022-11-03T02:32:55.279Z,6.53
2022-11-03T02:35:34.195Z,6.51
2022-11-03T02:38:12.097Z,6.47
2022-11-03T02:40:48.837Z,6.44
2022-11-03T02:43:23.891Z,6.42
2022-11-03T02:45:55.991Z,6.38
2022-11-03T02:48:27.981Z,6.37
2022-11-03T02:50:59.607Z,6.38
2022-11-03T02:53:34.620Z,6.36
2022-11-03T02:56:16.818Z,6.33
2022-11-03T02:58:48.243Z,6.31
2022-11-03T03:01:32.724Z,6.26
2022-11-03T03:04:09.552Z,6.22
2022-11-03T03:06:51.061Z,6.19
2022-11-03T03:09:29.258Z,6.16
2022-11-03T03:12:03.482Z,6.13
2022-11-03T03:14:38.779Z,6.10
2022-11-03T03:17:30.912Z,6.03
2022-11-03T03:20:13.512Z,6.04
2022-11-03T03:22:51.957Z,6.07
2022-11-03T03:25:43.685Z,6.02
2022-11-03T03:28:30.011Z,6.03
2022-11-03T03:31:06.061Z,6.01
2022-11-03T03:33:40.726Z,5.98
2022-11-03T03:36:18.850Z,5.95
2022-11-03T03:38:58.951Z,5.91
2022-11-03T03:41:32.813Z,5.92
2022-11-03T03:44:07.571Z,5.89
2022-11-03T03:46:42.251Z,5.86
2022-11-03T03:49:14.552Z,5.84
2022-11-03T03:51:47.143Z,5.81
2022-11-03T03:54:18.745Z,5.80
2022-11-03T03:56:57.579Z,5.81
2022-11-03T03:59:29.161Z,5.78
2022-11-03T04:02:00.837Z,5.76
2022-11-03T04:04:32.551Z,5.69
2022-11-03T04:07:23.455Z,5.70
2022-11-03T04:09:55.065Z,5.70
2022-11-03T04:12:45.110Z,5.68
2022-11-03T04:15:35.389Z,5.66
2022-11-03T04:18:26.183Z,5.66
2022-11-03T04:21:16.468Z,5.64
2022-11-03T04:23:48.026Z,5.62
2022-11-03T04:26:22.994Z,5.57
2022-11-03T04:28:55.645Z,5.54
2022-11-03T04:31:29.037Z,5.52
2022-11-03T04:34:00.758Z,5.49
2022-11-03T04:36:32.436Z,5.45
2022-11-03T04:39:16.281Z,5.43
2022-11-03T04:41:48.274Z,5.45
2022-11-03T04:44:20.044Z,5.38
2022-11-03T04:46:53.930Z,5.31
2022-11-03T04:49:25.499Z,5.29
2022-11-03T04:51:58.271Z,5.27
2022-11-03T04:54:29.888Z,5.26
2022-11-03T04:57:09.085Z,5.27
2022-11-03T04:59:43.153Z,5.27
2022-11-03T05:02:18.449Z,5.25
2022-11-03T05:04:50.001Z,5.23
2022-11-03T05:07:28.881Z,5.19
2022-11-03T05:10:01.072Z,5.16
2022-11-03T05:12:33.487Z,5.16
2022-11-03T05:15:11.352Z,5.19
2022-11-03T05:17:42.922Z,5.19
2022-11-03T05:20:36.635Z,5.21
2022-11-03T05:23:11.182Z,5.20
2022-11-03T05:25:46.800Z,5.17
2022-11-03T05:28:28.365Z,5.13
2022-11-03T05:30:59.990Z,5.13
2022-11-03T05:33:35.490Z,5.13
2022-11-03T05:36:16.455Z,5.12
2022-11-03T05:38:48.671Z,5.13
2022-11-03T05:41:26.519Z,5.14
2022-11-03T05:44:02.321Z,5.15
2022-11-03T05:46:35.525Z,5.15
2022-11-03T05:49:07.318Z,5.15
2022-11-03T05:51:41.729Z,5.16
2022-11-03T05:54:20.836Z,5.17
2022-11-03T05:56:52.348Z,5.17
2022-11-03T05:59:30.107Z,5.23
2022-11-03T06:02:02.440Z,5.35
2022-11-03T06:04:38.708Z,5.46
2022-11-03T06:07:25.967Z,5.57
2022-11-03T06:09:58.224Z,5.65
2022-11-03T06:12:30.540Z,5.72
2022-11-03T06:15:07.263Z,5.71
2022-11-03T06:17:38.869Z,5.67
2022-11-03T06:20:18.320Z,5.61
2022-11-03T06:22:52.205Z,5.69
2022-11-03T06:25:36.672Z,5.87
2022-11-03T06:28:22.500Z,5.98
2022-11-03T06:30:54.081Z,6.11
2022-11-03T06:33:27.848Z,6.26
2022-11-03T06:36:03.304Z,6.43
2022-11-03T06:38:35.343Z,6.65
2022-11-03T06:41:20.756Z,6.86
2022-11-03T06:43:53.036Z,7.03
2022-11-03T06:46:26.409Z,7.17
2022-11-03T06:49:00.404Z,7.27
2022-11-03T06:51:35.775Z,7.36
2022-11-03T06:54:11.038Z,7.26
2022-11-03T06:56:42.659Z,7.26
2022-11-03T06:59:15.633Z,7.29
2022-11-03T07:01:50.996Z,7.22
2022-11-03T07:04:28.556Z,7.15
2022-11-03T07:07:02.817Z,6.98
2022-11-03T07:09:34.441Z,6.90
2022-11-03T07:12:17.327Z,6.79
2022-11-03T07:14:48.934Z,6.66
2022-11-03T07:17:22.609Z,6.59
2022-11-03T07:19:54.252Z,6.47
2022-11-03T07:22:27.267Z,6.62
2022-11-03T07:25:03.516Z,6.42
2022-11-03T07:27:39.823Z,6.31
2022-11-03T07:30:17.506Z,6.10
2022-11-03T07:32:52.853Z,5.99
2022-11-03T07:36:00.208Z,6.24
2022-11-03T07:38:26.901Z,6.55
2022-11-03T07:41:00.067Z,7.09
2022-11-03T07:43:35.732Z,7.35
2022-11-03T07:46:18.592Z,7.56
2022-11-03T07:48:57.061Z,8.32
2022-11-03T07:51:32.526Z,10.08
2022-11-03T07:54:18.342Z,11.78
2022-11-03T07:57:05.842Z,12.68
2022-11-03T07:59:41.135Z,12.63
2022-11-03T08:02:15.739Z,12.81
2022-11-03T08:04:47.264Z,13.15
2022-11-03T08:07:18.846Z,13.56
2022-11-03T08:09:51.286Z,13.42
2022-11-03T08:12:23.165Z,13.37
2022-11-03T08:14:54.771Z,13.24
2022-11-03T08:17:26.668Z,13.17
2022-11-03T08:19:58.481Z,13.33
2022-11-03T08:22:30.091Z,13.99
2022-11-03T08:25:01.711Z,14.71
2022-11-03T08:27:33.291Z,14.85
2022-11-03T08:30:06.882Z,15.08
2022-11-03T08:32:38.545Z,15.70
2022-11-03T08:35:11.558Z,16.55
2022-11-03T08:37:43.181Z,17.13
2022-11-03T08:40:14.899Z,17.53
2022-11-03T08:42:46.497Z,17.59
2022-11-03T08:45:18.233Z,17.57
2022-11-03T08:47:50.023Z,17.65
2022-11-03T08:50:22.431Z,17.68
2022-11-03T08:52:54.139Z,18.02
2022-11-03T08:55:25.836Z,18.68
2022-11-03T08:57:57.459Z,19.15
2022-11-03T09:00:29.064Z,19.75
2022-11-03T09:03:00.653Z,19.99
2022-11-03T09:05:32.378Z,20.10
2022-11-03T09:10:55.890Z,19.59
2022-11-03T09:13:27.483Z,19.79
2022-11-03T09:15:59.105Z,20.21
2022-11-03T09:18:30.703Z,20.47
2022-11-03T09:21:04.335Z,20.77
2022-11-03T09:23:36.119Z,21.03
2022-11-03T09:26:07.699Z,21.12
2022-11-03T09:28:39.288Z,21.28
2022-11-03T09:31:10.934Z,21.29
2022-11-03T09:33:42.584Z,20.89
2022-11-03T09:36:14.205Z,20.64
2022-11-03T09:38:45.852Z,20.71
2022-11-03T09:41:27.714Z,20.48
2022-11-03T09:44:06.962Z,20.18
2022-11-03T09:46:38.756Z,20.55
2022-11-03T09:49:15.834Z,20.34
2022-11-03T09:51:47.851Z,19.48
2022-11-03T09:54:20.014Z,18.67
2022-11-03T09:56:54.692Z,17.90
2022-11-03T09:59:26.296Z,18.00
2022-11-03T10:01:58.068Z,18.51
2022-11-03T10:04:31.242Z,18.59
2022-11-03T10:07:05.007Z,18.53
2022-11-03T10:09:39.314Z,18.37
2022-11-03T10:12:11.843Z,18.38
2022-11-03T10:14:46.284Z,18.37
2022-11-03T10:17:21.970Z,18.36
2022-11-03T10:19:56.456Z,18.08
2022-11-03T10:22:27.977Z,18.16
2022-11-03T10:25:38.672Z,18.06
2022-11-03T10:28:24.993Z,18.10
2022-11-03T10:31:14.254Z,18.10
2022-11-03T10:33:54.837Z,17.53
2022-11-03T10:36:29.128Z,16.50
2022-11-03T10:39:25.828Z,16.04
2022-11-03T10:41:59.193Z,16.31
2022-11-03T10:44:31.353Z,16.98
2022-11-03T10:47:05.128Z,17.08
2022-11-03T10:49:40.853Z,16.95
2022-11-03T10:52:22.912Z,17.37
2022-11-03T10:54:57.443Z,17.17
2022-11-03T10:57:28.993Z,17.05
2022-11-03T11:00:01.182Z,17.14
2022-11-03T11:02:36.464Z,17.14
2022-11-03T11:05:22.232Z,17.27
2022-11-03T11:07:55.443Z,16.73
2022-11-03T11:10:31.188Z,16.63
2022-11-03T11:13:25.728Z,16.48
2022-11-03T11:16:01.526Z,16.90
2022-11-03T11:18:33.168Z,16.89
2022-11-03T11:21:17.641Z,17.29
2022-11-03T11:23:49.802Z,17.31
2022-11-03T11:26:27.598Z,17.08
2022-11-03T11:29:11.638Z,17.27
2022-11-03T11:31:44.408Z,17.78
2022-11-03T11:34:19.728Z,17.24
2022-11-03T11:36:57.191Z,16.96
2022-11-03T11:39:28.812Z,17.12
2022-11-03T11:42:10.002Z,17.16
2022-11-03T11:44:49.844Z,16.77
2022-11-03T11:47:35.071Z,16.67
2022-11-03T11:50:06.739Z,16.69
2022-11-03T11:52:48.604Z,16.91
2022-11-03T11:55:32.420Z,17.14
2022-11-03T11:58:06.461Z,17.11
2022-11-03T12:00:38.075Z,17.06
2022-11-03T12:03:15.503Z,17.06
2022-11-03T12:05:50.291Z,17.03
2022-11-03T12:08:28.935Z,16.68
2022-11-03T12:11:05.652Z,16.67
2022-11-03T12:13:51.193Z,16.38
2022-11-03T12:16:43.626Z,16.31
2022-11-03T12:19:41.806Z,16.26
2022-11-03T12:22:26.186Z,16.23
2022-11-03T12:25:01.324Z,16.21
2022-11-03T12:27:33.978Z,16.23
2022-11-03T12:30:12.571Z,16.31
2022-11-03T12:32:45.161Z,16.13
2022-11-03T12:35:17.155Z,15.87
2022-11-03T12:37:49.150Z,15.85
2022-11-03T12:40:20.964Z,16.02
2022-11-03T12:42:52.579Z,15.92
2022-11-03T12:45:24.431Z,15.97
2022-11-03T12:47:56.058Z,15.76
2022-11-03T12:50:27.695Z,15.63
2022-11-03T12:52:59.302Z,15.82
2022-11-03T12:55:30.922Z,15.88
2022-11-03T12:58:03.204Z,15.86
2022-11-03T13:00:34.812Z,15.71
2022-11-03T13:03:06.856Z,15.85
2022-11-03T13:05:38.790Z,15.86
2022-11-03T13:08:11.453Z,15.97
2022-11-03T13:10:43.080Z,16.10
2022-11-03T13:13:14.665Z,16.25
2022-11-03T13:15:46.329Z,16.43
2022-11-03T13:18:17.914Z,16.51
2022-11-03T13:20:49.688Z,16.59
2022-11-03T13:23:23.157Z,16.71
2022-11-03T13:25:54.955Z,16.93
2022-11-03T13:28:29.255Z,16.83
2022-11-03T13:31:01.208Z,16.37
2022-11-03T13:33:33.015Z,16.24
2022-11-03T13:36:05.033Z,16.12
2022-11-03T13:38:36.690Z,16.18
2022-11-03T13:41:09.243Z,16.06
2022-11-03T13:43:41.080Z,16.15
2022-11-03T13:46:12.969Z,16.05
2022-11-03T13:51:36.201Z,16.28
2022-11-03T13:59:53.971Z,15.98
2022-11-03T14:05:21.403Z,16.09
2022-11-03T14:07:53.084Z,16.10
2022-11-03T14:10:24.688Z,15.96
2022-11-03T14:12:56.312Z,15.83
2022-11-03T14:15:28.230Z,15.68
2022-11-03T14:17:59.891Z,15.64
2022-11-03T14:20:32.339Z,15.61
2022-11-03T14:23:04.112Z,15.63
2022-11-03T14:25:35.882Z,15.65
2022-11-03T14:28:07.544Z,15.64
2022-11-03T14:30:39.247Z,15.59
2022-11-03T14:33:11.114Z,15.51
2022-11-03T14:35:43.232Z,15.46
2022-11-03T14:38:14.830Z,15.41
2022-11-03T14:41:04.928Z,15.37
2022-11-03T14:43:36.524Z,15.36
2022-11-03T14:46:08.149Z,15.36
2022-11-03T14:48:39.820Z,15.32
2022-11-03T14:51:11.463Z,15.28
2022-11-03T14:53:43.050Z,15.21
2022-11-03T14:56:14.695Z,15.15
2022-11-03T14:58:46.359Z,15.10
2022-11-03T15:01:18.615Z,15.02
2022-11-03T15:03:50.332Z,14.95
2022-11-03T15:06:21.997Z,14.88
2022-11-03T15:08:56.447Z,14.78
2022-11-03T15:11:28.292Z,14.67
2022-11-03T15:14:02.743Z,14.55
2022-11-03T15:16:36.688Z,14.46
2022-11-03T15:19:08.826Z,14.38
2022-11-03T15:21:40.469Z,14.28
2022-11-03T15:27:03.992Z,14.11
2022-11-03T15:29:37.502Z,14.02
2022-11-03T15:32:09.073Z,13.92
2022-11-03T15:34:41.112Z,13.84
2022-11-03T15:37:12.683Z,13.71
2022-11-03T15:39:44.350Z,13.63
2022-11-03T15:42:15.973Z,13.57
2022-11-03T15:44:47.593Z,13.54
2022-11-03T15:47:21.898Z,13.50
2022-11-03T15:49:53.727Z,13.44
2022-11-03T15:52:25.519Z,13.38
2022-11-03T15:54:57.137Z,13.33
2022-11-03T15:57:28.823Z,13.25
2022-11-03T16:00:00.644Z,13.20
2022-11-03T16:02:41.293Z,13.11
2022-11-03T16:05:14.102Z,13.04
2022-11-03T16:07:45.716Z,12.99
2022-11-03T16:10:19.350Z,12.93
2022-11-03T16:12:50.906Z,12.86
2022-11-03T16:15:22.553Z,12.82
2022-11-03T16:17:54.127Z,12.80
2022-11-03T16:20:27.657Z,12.72
2022-11-03T16:22:59.332Z,12.68
2022-11-03T16:25:30.989Z,12.63
2022-11-03T16:28:02.692Z,12.56
2022-11-03T16:30:35.495Z,12.51
2022-11-03T16:33:07.561Z,12.49
2022-11-03T16:35:39.270Z,12.45
2022-11-03T16:38:11.508Z,12.41
2022-11-03T16:40:43.511Z,12.37
2022-11-03T16:43:15.077Z,12.30
2022-11-03T16:45:46.721Z,12.26
2022-11-03T16:48:18.320Z,12.21
2022-11-03T16:50:52.860Z,12.18
2022-11-03T16:53:27.414Z,12.15
2022-11-03T16:55:59.027Z,12.10
2022-11-03T16:58:30.942Z,12.07
2022-11-03T17:01:02.618Z,12.03
2022-11-03T17:03:34.618Z,12.02
2022-11-03T17:06:14.663Z,11.97
2022-11-03T17:08:52.838Z,11.93
2022-11-03T17:11:37.130Z,11.89
2022-11-03T17:14:13.448Z,11.87
2022-11-03T17:16:48.609Z,11.82
2022-11-03T17:19:20.274Z,11.79
2022-11-03T17:21:51.940Z,11.79
2022-11-03T17:24:23.604Z,11.77
2022-11-03T17:26:58.090Z,11.75
2022-11-03T17:29:44.144Z,11.73
2022-11-03T17:32:26.865Z,11.71
2022-11-03T17:34:58.719Z,11.68
2022-11-03T17:37:30.361Z,11.61
2022-11-03T17:40:04.741Z,11.53
2022-11-03T17:42:36.442Z,11.53
2022-11-03T17:45:12.709Z,11.53
2022-11-03T17:47:44.571Z,11.52
2022-11-03T17:50:21.479Z,11.49
2022-11-03T17:52:53.929Z,11.47
2022-11-03T17:55:31.663Z,11.45
2022-11-03T17:58:04.888Z,11.40
2022-11-03T18:00:37.375Z,11.33
2022-11-03T18:03:14.985Z,11.31
2022-11-03T18:05:46.795Z,11.28
2022-11-03T18:08:20.064Z,11.29
2022-11-03T18:10:54.276Z,11.33
2022-11-03T18:13:34.773Z,11.33
2022-11-03T18:16:10.127Z,11.36
2022-11-03T18:18:43.976Z,11.33
2022-11-03T18:21:18.712Z,11.33
2022-11-03T18:23:50.712Z,11.30
2022-11-03T18:26:24.489Z,11.29
2022-11-03T18:28:56.243Z,11.30
2022-11-03T18:31:37.293Z,11.27
2022-11-03T18:34:19.670Z,11.24
2022-11-03T18:36:52.770Z,11.25
2022-11-03T18:39:26.515Z,11.25
2022-11-03T18:41:59.640Z,11.20
2022-11-03T18:44:31.504Z,11.20
2022-11-03T18:47:03.110Z,11.18
2022-11-03T18:49:35.362Z,11.17
2022-11-03T18:52:15.467Z,11.13
2022-11-03T18:54:52.301Z,11.13
2022-11-03T18:57:26.435Z,11.12
2022-11-03T18:59:58.108Z,11.11
2022-11-03T19:02:30.531Z,11.12
2022-11-03T19:05:02.196Z,11.13
2022-11-03T19:07:35.916Z,11.14
2022-11-03T19:10:10.841Z,11.08
2022-11-03T19:12:46.065Z,11.06
2022-11-03T19:15:21.243Z,11.04
2022-11-03T19:17:56.972Z,11.07
2022-11-03T19:20:28.925Z,11.08
2022-11-03T19:23:00.519Z,11.08
2022-11-03T19:25:32.286Z,11.08
2022-11-03T19:28:04.170Z,11.08
2022-11-03T19:30:35.819Z,11.07
2022-11-03T19:33:16.503Z,11.07
2022-11-03T19:35:49.579Z,11.03
2022-11-03T19:38:21.483Z,11.04
2022-11-03T19:41:25.215Z,11.01
2022-11-03T19:43:56.983Z,11.04
2022-11-03T19:46:28.992Z,11.07
2022-11-03T19:49:00.717Z,11.11
2022-11-03T19:51:36.878Z,11.13
2022-11-03T19:54:15.872Z,11.13
2022-11-03T19:56:47.802Z,11.10
2022-11-03T19:59:19.409Z,11.08
2022-11-03T20:01:51.114Z,11.08
2022-11-03T20:04:22.829Z,11.04
2022-11-03T20:06:54.585Z,11.03
2022-11-03T20:12:03.225Z,11.04
2022-11-03T20:14:35.258Z,11.01
2022-11-03T20:17:17.510Z,10.92
2022-11-03T20:19:49.415Z,10.90
2022-11-03T20:22:29.940Z,10.84
2022-11-03T20:25:04.691Z,10.83
2022-11-03T20:27:36.731Z,10.84
2022-11-03T20:30:13.942Z,10.84
2022-11-03T20:32:46.793Z,10.84
2022-11-03T20:35:27.995Z,10.85
2022-11-03T20:37:59.689Z,10.84
2022-11-03T20:40:31.981Z,10.81
2022-11-03T20:43:04.193Z,10.80
2022-11-03T20:45:35.803Z,10.78
2022-11-03T20:48:11.881Z,10.75
2022-11-03T20:50:43.464Z,10.74
2022-11-03T20:53:17.464Z,10.68
2022-11-03T20:55:49.218Z,10.65
2022-11-03T20:58:21.080Z,10.63
2022-11-03T21:00:53.061Z,10.58
2022-11-03T21:03:53.587Z,10.55
2022-11-03T21:06:20.279Z,10.51
2022-11-03T21:08:52.372Z,10.52
2022-11-03T21:11:29.760Z,10.49
2022-11-03T21:14:08.242Z,10.45
2022-11-03T21:16:58.795Z,10.43
2022-11-03T21:20:01.082Z,10.41
2022-11-03T21:22:55.904Z,10.40
2022-11-03T21:25:27.642Z,10.35
2022-11-03T21:27:59.364Z,10.35
2022-11-03T21:30:33.753Z,10.34
2022-11-03T21:33:05.355Z,10.31
2022-11-03T21:35:37.821Z,10.29
2022-11-03T21:38:11.000Z,10.26
2022-11-03T21:40:44.636Z,10.26
2022-11-03T21:43:36.391Z,10.22
2022-11-03T21:46:11.094Z,10.19
2022-11-03T21:49:01.165Z,10.16
2022-11-03T21:51:32.759Z,10.14
2022-11-03T21:54:04.545Z,10.13
2022-11-03T21:56:36.116Z,10.12
2022-11-03T21:59:07.794Z,10.10
2022-11-03T22:01:39.512Z,10.08
2022-11-03T22:04:11.203Z,10.08
2022-11-03T22:06:42.820Z,10.06
2022-11-03T22:09:14.400Z,10.03
2022-11-03T22:11:46.764Z,10.01
2022-11-03T22:14:18.668Z,9.99
2022-11-03T22:16:50.325Z,10.00
2022-11-03T22:19:41.438Z,10.01
2022-11-03T22:22:33.525Z,9.98
2022-11-03T22:25:23.991Z,9.98
2022-11-03T22:27:55.773Z,9.95
2022-11-03T22:30:45.960Z,9.92
2022-11-03T22:33:17.759Z,9.94
2022-11-03T22:36:07.972Z,9.91
2022-11-03T22:38:58.168Z,9.88
2022-11-03T22:41:48.496Z,9.86
2022-11-03T22:44:38.629Z,9.82
2022-11-03T22:47:11.317Z,9.79
2022-11-03T22:49:44.693Z,9.77
2022-11-03T22:52:16.362Z,9.76
2022-11-03T22:54:47.958Z,9.76
2022-11-03T22:57:19.551Z,9.76
2022-11-03T22:59:51.243Z,9.72
2022-11-03T23:02:22.920Z,9.70
2022-11-03T23:04:54.569Z,9.69
2022-11-03T23:07:31.541Z,9.69
2022-11-03T23:10:05.157Z,9.67
2022-11-03T23:12:36.823Z,9.66
2022-11-03T23:15:27.207Z,9.65
2022-11-03T23:18:21.471Z,9.63
2022-11-03T23:21:08.173Z,9.62
2022-11-03T23:23:58.863Z,9.61
2022-11-03T23:26:30.457Z,9.59
2022-11-03T23:29:02.052Z,9.54
2022-11-03T23:31:35.437Z,9.57
2022-11-03T23:34:08.733Z,9.58
2022-11-03T23:36:40.404Z,9.57
2022-11-03T23:39:16.990Z,9.58
2022-11-03T23:41:50.456Z,9.56
2022-11-03T23:44:22.110Z,9.54
2022-11-03T23:47:12.030Z,9.54
2022-11-03T23:49:43.583Z,9.54
2022-11-03T23:52:15.167Z,9.56
2022-11-03T23:54:46.792Z,9.59
2022-11-03T23:57:36.919Z,9.58
